Time;durP1;ratioP1;P1;durP2;ratioP2;P2;SDS_P1;SDS_P2;PMS_P1;PMS_P2;Temp;Humidity;BMP_temperature;BMP_pressure;BME280_temperature;BME280_humidity;BME280_pressure;Samples;Min_cycle;Max_cycle;Signal;HPM_P1;HPM_P2
2021/08/28 00:01:29;;;;;;;7.07;3.65;;;15.20;99.90;;;;;;5013132;28;20056;-68
2021/08/28 00:03:55;;;;;;;9.77;4.28;;;15.10;99.90;;;;;;5013329;28;20060;-69
2021/08/28 00:06:21;;;;;;;5.72;3.67;;;15.10;99.90;;;;;;5013409;28;20481;-68
2021/08/28 00:08:46;;;;;;;6.47;4.50;;;15.20;99.90;;;;;;5012899;28;20042;-68
2021/08/28 00:11:13;;;;;;;7.13;3.63;;;15.20;99.90;;;;;;5028408;28;20061;-68
2021/08/28 00:13:39;;;;;;;6.78;3.72;;;15.20;99.90;;;;;;5013009;28;20037;-68
2021/08/28 00:16:05;;;;;;;6.38;4.00;;;15.10;99.90;;;;;;5012937;28;20038;-69
2021/08/28 00:18:31;;;;;;;7.15;4.22;;;15.10;99.90;;;;;;5012746;28;20045;-69
2021/08/28 00:20:57;;;;;;;6.28;3.72;;;15.00;99.90;;;;;;5011697;28;20036;-69
2021/08/28 00:23:23;;;;;;;5.15;3.92;;;15.00;99.90;;;;;;5012838;28;20060;-68
2021/08/28 00:25:48;;;;;;;4.93;3.03;;;14.90;99.90;;;;;;5011550;28;20082;-69
2021/08/28 00:28:15;;;;;;;7.18;3.72;;;14.90;99.90;;;;;;5012891;28;20022;-69
2021/08/28 00:30:40;;;;;;;6.20;4.05;;;14.80;99.90;;;;;;5011474;28;20124;-69
2021/08/28 00:33:15;;;;;;;6.75;3.60;;;14.80;99.90;;;;;;5011755;28;20109;-69
2021/08/28 00:35:41;;;;;;;7.32;3.83;;;14.70;99.90;;;;;;5012479;28;20061;-68
2021/08/28 00:38:07;;;;;;;6.22;4.28;;;14.70;99.90;;;;;;5011682;28;20026;-68
2021/08/28 00:40:36;;;;;;;7.00;3.83;;;14.70;99.90;;;;;;5011254;28;20037;-69
2021/08/28 00:43:02;;;;;;;8.52;4.03;;;14.70;99.90;;;;;;5012388;28;20030;-69
2021/08/28 00:45:30;;;;;;;5.95;4.00;;;14.80;99.90;;;;;;5012910;28;20034;-68
2021/08/28 00:48:10;;;;;;;5.38;3.70;;;14.70;99.90;;;;;;5011538;28;20129;-69
2021/08/28 00:50:38;;;;;;;8.10;4.10;;;14.70;99.90;;;;;;5012486;28;20113;-69
2021/08/28 00:53:12;;;;;;;4.75;3.55;;;14.70;99.90;;;;;;5012732;28;20320;-69
2021/08/28 00:55:47;;;;;;;8.45;4.65;;;14.70;99.90;;;;;;5012535;28;20118;-68
2021/08/28 00:58:14;;;;;;;6.90;5.07;;;14.70;99.90;;;;;;4995650;28;20501;-68
2021/08/28 01:00:54;;;;;;;5.53;4.10;;;14.70;99.90;;;;;;5011131;28;20080;-68
2021/08/28 01:03:31;;;;;;;7.45;5.50;;;14.90;99.90;;;;;;5010207;28;20069;-69
2021/08/28 01:06:20;;;;;;;9.98;5.15;;;14.80;99.90;;;;;;5011216;28;20037;-69
2021/08/28 01:08:54;;;;;;;7.68;5.40;;;14.90;99.90;;;;;;5011362;28;20458;-69
2021/08/28 01:11:38;;;;;;;8.77;5.40;;;14.90;99.90;;;;;;5011576;28;20494;-69
2021/08/28 01:14:14;;;;;;;9.32;5.35;;;14.80;99.90;;;;;;4997974;28;20125;-70
2021/08/28 01:16:47;;;;;;;8.55;5.30;;;14.90;99.90;;;;;;5007905;28;20029;-68
2021/08/28 01:19:32;;;;;;;7.88;5.38;;;14.80;99.90;;;;;;5012179;28;20164;-68
2021/08/28 01:22:00;;;;;;;10.15;6.05;;;14.80;99.90;;;;;;5010923;28;20040;-68
2021/08/28 01:24:26;;;;;;;9.07;6.05;;;14.90;99.90;;;;;;5011017;28;20034;-68
2021/08/28 01:27:04;;;;;;;11.32;6.47;;;14.90;99.90;;;;;;5012191;28;20109;-68
2021/08/28 01:29:33;;;;;;;10.40;6.75;;;14.90;99.90;;;;;;5011190;28;20030;-68
2021/08/28 01:32:01;;;;;;;13.18;7.38;;;14.90;99.90;;;;;;5010053;28;20026;-68
2021/08/28 01:34:30;;;;;;;10.57;6.25;;;15.00;99.90;;;;;;5010847;28;20076;-68
2021/08/28 01:36:57;;;;;;;9.73;6.80;;;15.10;99.90;;;;;;5012018;28;20100;-68
2021/08/28 01:39:24;;;;;;;12.25;7.05;;;15.20;99.90;;;;;;5010702;28;20038;-68
2021/08/28 01:41:59;;;;;;;10.70;7.45;;;15.30;99.90;;;;;;5012177;28;20033;-68
2021/08/28 01:44:25;;;;;;;11.85;7.32;;;15.30;99.90;;;;;;4994745;28;20037;-68
2021/08/28 01:46:53;;;;;;;13.52;8.32;;;15.30;99.90;;;;;;5009967;28;20034;-68
2021/08/28 01:49:21;;;;;;;12.00;8.27;;;15.20;99.90;;;;;;5010670;28;20034;-68
2021/08/28 01:51:49;;;;;;;15.75;9.02;;;15.20;99.90;;;;;;5010727;28;20026;-68
2021/08/28 01:54:15;;;;;;;13.32;8.93;;;15.20;99.90;;;;;;5010814;28;20046;-68
2021/08/28 01:56:41;;;;;;;12.98;9.40;;;15.20;99.90;;;;;;5010599;28;20417;-68
2021/08/28 01:59:08;;;;;;;16.80;9.30;;;15.10;99.90;;;;;;5010989;28;20121;-68
2021/08/28 02:01:34;;;;;;;14.20;9.95;;;15.10;99.90;;;;;;5010596;28;20075;-68
2021/08/28 02:04:00;;;;;;;13.98;9.43;;;15.00;99.90;;;;;;5010727;28;20606;-68
2021/08/28 02:06:35;;;;;;;13.80;9.77;;;15.00;99.90;;;;;;5010956;28;20038;-69
2021/08/28 02:09:20;;;;;;;17.02;11.05;;;15.00;99.90;;;;;;5010516;28;20038;-68
2021/08/28 02:12:07;;;;;;;16.55;10.23;;;14.90;99.90;;;;;;5011663;28;20022;-68
2021/08/28 02:14:46;;;;;;;18.02;9.80;;;14.90;99.90;;;;;;5011980;28;20061;-69
2021/08/28 02:17:14;;;;;;;16.35;10.25;;;14.80;99.90;;;;;;4995923;28;20057;-69
2021/08/28 02:19:43;;;;;;;13.55;10.43;;;14.80;99.90;;;;;;5010515;28;20477;-69
2021/08/28 02:22:31;;;;;;;15.10;10.27;;;14.80;99.90;;;;;;4995557;28;20368;-69
2021/08/28 02:25:49;;;;;;;15.20;10.65;;;14.80;99.90;;;;;;4995383;28;20506;-69
2021/08/28 02:28:33;;;;;;;13.65;9.95;;;14.70;99.90;;;;;;4987949;28;20085;-69
2021/08/28 02:31:03;;;;;;;15.20;10.48;;;14.70;99.90;;;;;;4993883;28;20034;-69
2021/08/28 02:33:30;;;;;;;16.77;10.63;;;14.60;99.90;;;;;;5010145;28;20395;-69
2021/08/28 02:35:58;;;;;;;14.50;10.13;;;14.60;99.90;;;;;;5010316;28;20061;-69
2021/08/28 02:38:25;;;;;;;15.45;10.80;;;14.50;99.90;;;;;;5010253;28;20450;-69
2021/08/28 02:40:53;;;;;;;16.50;10.27;;;14.60;99.90;;;;;;5010299;28;20056;-68
2021/08/28 02:43:20;;;;;;;12.75;9.73;;;14.50;99.90;;;;;;4995246;28;20099;-68
2021/08/28 02:45:50;;;;;;;15.77;10.45;;;14.50;99.90;;;;;;5016687;28;20080;-68
2021/08/28 02:48:19;;;;;;;15.80;10.00;;;14.60;99.90;;;;;;5029729;28;20534;-68
2021/08/28 02:50:48;;;;;;;18.02;10.77;;;14.50;99.90;;;;;;5029428;28;20211;-69
2021/08/28 02:53:17;;;;;;;14.60;10.80;;;14.60;99.90;;;;;;5014662;28;20092;-69
2021/08/28 02:55:46;;;;;;;16.63;10.35;;;14.50;99.90;;;;;;5029670;28;20041;-69
2021/08/28 02:58:12;;;;;;;13.25;10.30;;;14.50;99.90;;;;;;5029474;28;20050;-69
2021/08/28 03:00:40;;;;;;;15.23;10.70;;;14.40;99.90;;;;;;5029855;28;20030;-68
2021/08/28 03:03:07;;;;;;;17.60;10.93;;;14.30;99.90;;;;;;5029873;28;20038;-68
2021/08/28 03:05:33;;;;;;;18.02;10.82;;;14.30;99.90;;;;;;5014595;28;20036;-69
2021/08/28 03:07:59;;;;;;;16.17;10.05;;;14.40;99.90;;;;;;5014443;28;20493;-68
2021/08/28 03:10:25;;;;;;;17.80;11.38;;;14.40;99.90;;;;;;5014463;28;20046;-68
2021/08/28 03:12:51;;;;;;;14.90;11.05;;;14.30;99.90;;;;;;5013190;28;20470;-69
2021/08/28 03:15:17;;;;;;;18.42;10.93;;;14.40;99.90;;;;;;5026488;28;20385;-69
2021/08/28 03:17:46;;;;;;;14.27;10.98;;;14.50;99.90;;;;;;5009553;28;20047;-69
2021/08/28 03:20:15;;;;;;;15.55;11.15;;;14.50;99.90;;;;;;5009284;28;20378;-69
2021/08/28 03:22:45;;;;;;;15.52;10.80;;;14.50;99.90;;;;;;5009365;28;20027;-69
2021/08/28 03:25:13;;;;;;;20.33;11.70;;;14.50;99.90;;;;;;5009381;28;20080;-69
2021/08/28 03:27:40;;;;;;;15.38;11.38;;;14.50;99.90;;;;;;5008342;28;20133;-68
2021/08/28 03:30:12;;;;;;;18.15;10.75;;;14.50;99.90;;;;;;5009277;28;20038;-68
2021/08/28 03:32:42;;;;;;;18.25;11.45;;;14.50;99.90;;;;;;5008282;28;20428;-69
2021/08/28 03:35:10;;;;;;;17.90;10.85;;;14.60;99.90;;;;;;5008913;28;20414;-69
2021/08/28 03:37:39;;;;;;;20.60;12.05;;;14.60;99.90;;;;;;5009206;28;20539;-69
2021/08/28 03:40:09;;;;;;;15.70;10.88;;;14.40;99.90;;;;;;5009225;28;20026;-68
2021/08/28 03:42:41;;;;;;;20.38;12.02;;;14.40;99.90;;;;;;5009426;28;20046;-69
2021/08/28 03:45:09;;;;;;;20.55;12.02;;;14.20;99.90;;;;;;5008963;28;20078;-69
2021/08/28 03:47:40;;;;;;;19.27;12.73;;;14.10;99.90;;;;;;5008837;28;20030;-69
2021/08/28 03:50:06;;;;;;;19.95;12.15;;;14.10;99.90;;;;;;4993899;28;20046;-68
2021/08/28 03:52:33;;;;;;;18.70;12.93;;;14.20;99.90;;;;;;4994053;28;20042;-69
2021/08/28 03:54:59;;;;;;;17.83;11.82;;;14.10;99.90;;;;;;4993655;28;20065;-68
2021/08/28 03:57:25;;;;;;;20.67;12.65;;;14.10;99.90;;;;;;5009350;28;20026;-68
2021/08/28 03:59:51;;;;;;;19.55;12.52;;;14.20;99.90;;;;;;4993445;28;20157;-68
2021/08/28 04:02:16;;;;;;;16.88;11.65;;;14.10;99.90;;;;;;4993627;28;20046;-68
2021/08/28 04:04:42;;;;;;;16.27;12.35;;;14.10;99.90;;;;;;4993640;28;20038;-68
2021/08/28 04:07:08;;;;;;;18.85;11.27;;;14.00;99.90;;;;;;4993367;28;20121;-68
2021/08/28 04:09:34;;;;;;;16.52;11.88;;;14.00;99.90;;;;;;4993874;28;20034;-68
2021/08/28 04:11:59;;;;;;;18.05;12.60;;;14.00;99.90;;;;;;4992133;28;20172;-68
2021/08/28 04:14:25;;;;;;;18.70;12.68;;;14.00;99.90;;;;;;4992186;28;20050;-68
2021/08/28 04:16:51;;;;;;;19.70;13.05;;;14.00;99.90;;;;;;4993117;28;20037;-69
2021/08/28 04:19:16;;;;;;;18.90;13.10;;;14.10;99.90;;;;;;5008603;28;20041;-68
2021/08/28 04:21:42;;;;;;;18.17;12.05;;;14.00;99.90;;;;;;4993256;28;20109;-68
2021/08/28 04:24:08;;;;;;;18.50;11.85;;;14.10;99.90;;;;;;4993151;28;20048;-68
2021/08/28 04:26:34;;;;;;;20.55;13.07;;;14.10;99.90;;;;;;4993511;28;20034;-68
2021/08/28 04:28:59;;;;;;;23.85;13.55;;;14.10;99.90;;;;;;4993338;28;20030;-68
2021/08/28 04:31:25;;;;;;;25.73;14.77;;;14.00;99.90;;;;;;4993440;28;20034;-68
2021/08/28 04:33:52;;;;;;;20.48;13.68;;;14.10;99.90;;;;;;4993214;28;20044;-68
2021/08/28 04:36:17;;;;;;;20.65;13.57;;;14.20;99.90;;;;;;4992938;28;19913;-69
2021/08/28 04:38:43;;;;;;;17.63;12.45;;;14.20;99.90;;;;;;4992880;28;20084;-69
2021/08/28 04:41:09;;;;;;;20.52;12.15;;;14.20;99.90;;;;;;4993127;28;20039;-69
2021/08/28 04:43:35;;;;;;;20.55;12.95;;;14.10;99.90;;;;;;4993128;28;20446;-69
2021/08/28 04:46:00;;;;;;;19.05;12.52;;;14.10;99.90;;;;;;5008087;28;20038;-69
2021/08/28 04:48:27;;;;;;;22.23;14.60;;;14.10;99.90;;;;;;4992870;28;20389;-69
2021/08/28 04:50:53;;;;;;;18.60;13.93;;;14.10;99.90;;;;;;5007735;28;20031;-69
2021/08/28 04:53:19;;;;;;;18.95;13.00;;;14.20;99.90;;;;;;4992988;28;20076;-69
2021/08/28 04:55:45;;;;;;;21.77;13.82;;;14.20;99.90;;;;;;4991361;28;20045;-69
2021/08/28 04:58:12;;;;;;;18.95;13.13;;;14.20;99.90;;;;;;4992979;28;20026;-69
2021/08/28 05:00:38;;;;;;;19.48;12.65;;;14.10;99.90;;;;;;5007881;28;20391;-69
2021/08/28 05:03:04;;;;;;;20.80;14.13;;;14.10;99.90;;;;;;4992694;28;20027;-69
2021/08/28 05:05:30;;;;;;;22.13;13.63;;;14.20;99.90;;;;;;5008068;28;20042;-68
2021/08/28 05:07:55;;;;;;;20.23;13.38;;;14.20;99.90;;;;;;4992479;28;20504;-69
2021/08/28 05:10:23;;;;;;;20.27;13.95;;;14.20;99.90;;;;;;5007810;28;20038;-69
2021/08/28 05:12:48;;;;;;;22.10;13.98;;;14.30;99.90;;;;;;4991604;28;20478;-69
2021/08/28 05:15:15;;;;;;;21.30;14.00;;;14.20;99.90;;;;;;5007642;28;20124;-68
2021/08/28 05:17:40;;;;;;;19.25;13.38;;;14.10;99.90;;;;;;4992584;28;20038;-69
2021/08/28 05:20:08;;;;;;;22.63;14.02;;;14.00;99.90;;;;;;5007781;28;20121;-69
2021/08/28 05:22:34;;;;;;;22.90;15.05;;;14.00;99.90;;;;;;5007492;28;20030;-69
2021/08/28 05:24:59;;;;;;;49.20;28.52;;;14.00;99.90;;;;;;5007553;28;20395;-65
2021/08/28 05:27:25;;;;;;;32.95;22.60;;;14.30;99.90;;;;;;4992677;28;20037;-66
2021/08/28 05:29:51;;;;;;;26.20;15.88;;;14.40;99.90;;;;;;4998369;28;20438;-65
2021/08/28 05:32:17;;;;;;;48.65;29.02;;;14.50;99.90;;;;;;5011939;28;20041;-65
2021/08/28 05:34:43;;;;;;;24.80;14.60;;;14.70;99.90;;;;;;5012240;28;20037;-67
2021/08/28 05:37:08;;;;;;;32.35;21.73;;;14.70;99.90;;;;;;5012045;28;20069;-65
2021/08/28 05:39:34;;;;;;;20.10;13.60;;;14.60;99.90;;;;;;5009225;28;20026;-66
2021/08/28 05:42:00;;;;;;;21.23;14.57;;;14.70;99.90;;;;;;5011830;28;20030;-64
2021/08/28 05:44:26;;;;;;;24.15;14.30;;;14.70;99.90;;;;;;5012182;28;20026;-67
2021/08/28 05:46:52;;;;;;;17.50;12.68;;;14.80;99.90;;;;;;5012012;28;20033;-65
2021/08/28 05:49:18;;;;;;;19.48;11.35;;;14.80;99.90;;;;;;5012255;28;20034;-65
2021/08/28 05:51:44;;;;;;;16.77;11.60;;;14.70;99.90;;;;;;5011251;28;20041;-66
2021/08/28 05:54:09;;;;;;;15.25;10.85;;;14.80;99.90;;;;;;4996114;28;20074;-66
2021/08/28 05:56:35;;;;;;;15.15;10.57;;;14.80;99.90;;;;;;4996223;28;20244;-66
2021/08/28 05:59:01;;;;;;;15.77;10.63;;;14.90;99.90;;;;;;4995041;28;20026;-66
2021/08/28 06:01:27;;;;;;;14.40;9.85;;;15.00;99.90;;;;;;4996116;28;20038;-65
2021/08/28 06:03:53;;;;;;;14.90;9.43;;;15.10;99.90;;;;;;4995957;28;20034;-67
2021/08/28 06:06:18;;;;;;;14.38;9.60;;;15.10;99.90;;;;;;4996101;28;20037;-65
2021/08/28 06:08:44;;;;;;;22.52;10.65;;;15.10;99.90;;;;;;4996177;28;20030;-66
2021/08/28 06:11:10;;;;;;;13.00;9.23;;;15.10;99.90;;;;;;4995608;28;20026;-65
2021/08/28 06:13:35;;;;;;;14.88;9.43;;;15.10;99.90;;;;;;4994935;28;20076;-65
2021/08/28 06:16:01;;;;;;;13.93;10.23;;;15.10;99.90;;;;;;4994273;28;20414;-66
2021/08/28 06:18:27;;;;;;;13.55;8.80;;;15.10;99.90;;;;;;4995357;28;20077;-66
2021/08/28 06:20:53;;;;;;;12.95;9.15;;;15.20;99.90;;;;;;4995780;28;20026;-65
2021/08/28 06:23:19;;;;;;;13.48;9.00;;;15.20;99.90;;;;;;5011086;28;20052;-65
2021/08/28 06:25:44;;;;;;;12.90;9.18;;;15.10;99.90;;;;;;5015157;28;20041;-65
2021/08/28 06:28:10;;;;;;;15.13;9.20;;;15.20;99.90;;;;;;5013560;28;20361;-66
2021/08/28 06:30:36;;;;;;;13.15;9.07;;;15.30;99.90;;;;;;5015275;28;20046;-66
2021/08/28 06:33:02;;;;;;;12.02;9.32;;;15.30;99.90;;;;;;5015278;28;20121;-66
2021/08/28 06:35:28;;;;;;;13.68;8.57;;;15.10;99.90;;;;;;5013761;28;20030;-66
2021/08/28 06:37:54;;;;;;;11.93;8.60;;;15.10;99.90;;;;;;5014511;28;20073;-67
2021/08/28 06:40:20;;;;;;;13.48;7.70;;;15.30;99.90;;;;;;5014717;28;20079;-66
2021/08/28 06:42:46;;;;;;;14.60;8.35;;;15.50;99.90;;;;;;5013355;28;20107;-66
2021/08/28 06:45:12;;;;;;;15.73;10.88;;;15.70;99.90;;;;;;5014789;28;20037;-66
2021/08/28 06:47:37;;;;;;;14.27;8.88;;;15.80;99.90;;;;;;5013688;28;20022;-65
2021/08/28 06:50:04;;;;;;;15.48;11.40;;;15.90;99.90;;;;;;5013256;28;20172;-66
2021/08/28 06:52:30;;;;;;;17.20;8.10;;;16.00;99.90;;;;;;5014806;28;20084;-66
2021/08/28 06:54:55;;;;;;;12.73;6.43;;;15.90;99.90;;;;;;5013163;28;20034;-66
2021/08/28 06:57:21;;;;;;;11.95;6.40;;;16.00;99.90;;;;;;5013328;28;20038;-67
2021/08/28 06:59:47;;;;;;;9.77;7.15;;;16.10;99.90;;;;;;5013436;28;20038;-66
2021/08/28 07:02:12;;;;;;;9.05;6.45;;;16.10;99.90;;;;;;5014256;28;20092;-66
2021/08/28 07:04:38;;;;;;;10.48;6.47;;;15.90;99.90;;;;;;5014381;28;20089;-66
2021/08/28 07:07:04;;;;;;;9.93;6.20;;;16.00;99.90;;;;;;5013145;28;20455;-66
2021/08/28 07:09:30;;;;;;;8.13;6.22;;;15.70;99.90;;;;;;5013067;28;20490;-66
2021/08/28 07:11:56;;;;;;;8.07;5.55;;;15.90;99.90;;;;;;5014252;28;20125;-67
2021/08/28 07:14:22;;;;;;;7.05;5.55;;;15.80;99.90;;;;;;5014373;28;20032;-67
2021/08/28 07:16:47;;;;;;;9.57;6.03;;;16.00;99.90;;;;;;5029134;28;20030;-68
2021/08/28 07:19:13;;;;;;;7.85;5.85;;;15.90;99.90;;;;;;5013856;28;20076;-68
2021/08/28 07:21:39;;;;;;;10.35;6.90;;;16.10;99.90;;;;;;5027016;28;20121;-68
2021/08/28 07:24:05;;;;;;;9.27;6.43;;;15.80;99.90;;;;;;4994352;28;20038;-67
2021/08/28 07:26:31;;;;;;;7.60;5.22;;;16.00;99.90;;;;;;4994427;28;20064;-68
2021/08/28 07:28:57;;;;;;;9.85;5.93;;;16.20;99.90;;;;;;5009512;28;20455;-68
2021/08/28 07:31:22;;;;;;;8.93;5.85;;;15.80;99.90;;;;;;4994776;28;20502;-67
2021/08/28 07:33:48;;;;;;;7.43;5.63;;;15.80;99.90;;;;;;5009404;28;20069;-67
2021/08/28 07:36:14;;;;;;;8.93;5.22;;;15.70;99.90;;;;;;4995463;28;20096;-68
2021/08/28 07:38:39;;;;;;;9.60;5.95;;;15.90;99.90;;;;;;4993374;28;20399;-67
2021/08/28 07:41:05;;;;;;;7.97;5.72;;;16.20;99.90;;;;;;4994091;28;20702;-66
2021/08/28 07:43:31;;;;;;;8.25;5.53;;;16.00;99.90;;;;;;4994019;28;20038;-66
2021/08/28 07:45:58;;;;;;;10.02;5.13;;;15.90;99.90;;;;;;4993890;28;20044;-68
2021/08/28 07:48:24;;;;;;;8.55;5.93;;;16.10;99.90;;;;;;5001338;28;20033;-67
2021/08/28 07:50:50;;;;;;;7.30;5.40;;;16.40;99.90;;;;;;5028732;28;20034;-68
2021/08/28 07:53:16;;;;;;;7.68;5.07;;;16.70;99.90;;;;;;5013121;28;20042;-65
2021/08/28 07:55:44;;;;;;;8.63;4.78;;;16.60;99.90;;;;;;5013577;28;20608;-63
2021/08/28 07:58:10;;;;;;;9.05;5.60;;;16.70;99.90;;;;;;5010232;28;20060;-68
2021/08/28 08:00:36;;;;;;;7.80;4.90;;;16.80;99.90;;;;;;5028332;28;20042;-69
2021/08/28 08:03:02;;;;;;;6.80;4.60;;;16.60;99.90;;;;;;5013023;28;20088;-69
2021/08/28 08:05:28;;;;;;;9.35;5.60;;;16.60;99.90;;;;;;5013508;28;20026;-69
2021/08/28 08:07:54;;;;;;;7.45;4.85;;;16.70;99.90;;;;;;5027925;28;20371;-69
2021/08/28 08:10:19;;;;;;;7.72;5.72;;;16.60;99.90;;;;;;5013003;28;20061;-69
2021/08/28 08:12:45;;;;;;;8.68;5.60;;;16.60;99.90;;;;;;5028107;28;20037;-69
2021/08/28 08:15:11;;;;;;;7.40;5.03;;;16.70;99.90;;;;;;5028038;28;20038;-68
2021/08/28 08:17:37;;;;;;;7.28;5.10;;;16.70;99.90;;;;;;5013334;28;20042;-68
2021/08/28 08:20:04;;;;;;;6.82;5.20;;;16.70;99.90;;;;;;5012599;28;20498;-69
2021/08/28 08:22:30;;;;;;;7.90;5.95;;;16.90;99.90;;;;;;5013039;28;20052;-69
2021/08/28 08:24:56;;;;;;;7.50;4.18;;;16.90;99.90;;;;;;5012865;28;20046;-68
2021/08/28 08:27:24;;;;;;;9.98;5.15;;;16.90;99.90;;;;;;5012624;28;20034;-69
2021/08/28 08:29:49;;;;;;;10.15;5.53;;;16.90;99.90;;;;;;5012673;28;20025;-69
2021/08/28 08:32:15;;;;;;;8.50;4.30;;;16.20;99.90;;;;;;5012843;28;20057;-69
2021/08/28 08:34:41;;;;;;;6.38;4.40;;;16.40;99.90;;;;;;5012736;28;20065;-69
2021/08/28 08:37:06;;;;;;;5.07;3.78;;;16.70;99.90;;;;;;5008812;28;20476;-69
2021/08/28 08:39:32;;;;;;;6.55;4.57;;;16.90;99.90;;;;;;5012201;28;20030;-70
2021/08/28 08:42:00;;;;;;;6.03;3.95;;;16.70;99.90;;;;;;5012935;28;20103;-70
2021/08/28 08:44:27;;;;;;;5.47;3.40;;;16.80;99.90;;;;;;5012421;28;20033;-68
2021/08/28 08:46:54;;;;;;;5.38;3.20;;;16.90;99.90;;;;;;5011251;28;20037;-69
2021/08/28 08:49:21;;;;;;;3.72;2.38;;;16.80;99.90;;;;;;5011156;28;20088;-69
2021/08/28 08:51:48;;;;;;;6.80;3.63;;;16.90;99.90;;;;;;5007760;28;20372;-69
2021/08/28 08:54:14;;;;;;;5.22;2.80;;;16.90;99.90;;;;;;4991633;28;20030;-69
2021/08/28 08:56:40;;;;;;;5.28;2.22;;;17.10;99.90;;;;;;4992781;28;20058;-69
2021/08/28 08:59:06;;;;;;;4.93;2.30;;;17.00;99.90;;;;;;4974959;28;20534;-70
2021/08/28 09:01:31;;;;;;;3.83;1.85;;;16.70;99.90;;;;;;4993117;28;20031;-69
2021/08/28 09:03:57;;;;;;;3.25;1.90;;;16.90;99.90;;;;;;4993093;28;20074;-69
2021/08/28 09:06:23;;;;;;;4.75;2.33;;;16.90;99.90;;;;;;5007767;28;20082;-69
2021/08/28 09:08:49;;;;;;;5.43;3.67;;;16.90;99.90;;;;;;4975134;28;20390;-69
2021/08/28 09:11:33;;;;;;;3.20;1.70;;;17.10;99.90;;;;;;4992738;28;20042;-69
2021/08/28 09:14:20;;;;;;;3.42;1.90;;;17.20;99.90;;;;;;4991560;28;20380;-70
2021/08/28 09:16:48;;;;;;;3.55;1.73;;;17.20;99.90;;;;;;4992979;28;20127;-69
2021/08/28 09:19:14;;;;;;;3.92;1.75;;;17.50;99.90;;;;;;5007622;28;20041;-69
2021/08/28 09:21:40;;;;;;;2.60;1.60;;;17.40;99.90;;;;;;4992440;28;20065;-69
2021/08/28 09:24:09;;;;;;;2.70;1.70;;;17.30;99.90;;;;;;5001167;28;20278;-71
2021/08/28 09:26:39;;;;;;;3.35;1.70;;;17.50;99.90;;;;;;5031028;28;20054;-70
2021/08/28 09:29:09;;;;;;;3.30;1.35;;;17.70;99.90;;;;;;5015147;28;20113;-70
2021/08/28 09:31:36;;;;;;;3.63;1.83;;;17.70;99.90;;;;;;5031249;28;20030;-70
2021/08/28 09:34:40;;;;;;;4.53;1.90;;;17.80;99.90;;;;;;5031401;28;20292;-70
2021/08/28 09:37:07;;;;;;;4.30;1.98;;;17.60;99.90;;;;;;4939004;29;20043;-70
2021/08/28 09:39:41;;;;;;;2.60;1.50;;;17.80;99.90;;;;;;4955152;28;20114;-70
2021/08/28 09:42:09;;;;;;;11.35;7.00;;;17.90;99.90;;;;;;4955127;29;20047;-70
2021/08/28 09:44:41;;;;;;;5.55;1.75;;;18.10;99.90;;;;;;4923208;29;20039;-70
2021/08/28 09:47:11;;;;;;;5.90;3.08;;;18.20;99.90;;;;;;4954841;29;20122;-70
2021/08/28 09:49:41;;;;;;;3.17;1.97;;;18.10;99.90;;;;;;4954941;29;20047;-70
2021/08/28 09:52:19;;;;;;;4.05;1.92;;;18.30;99.90;;;;;;4938863;29;20036;-70
2021/08/28 09:54:45;;;;;;;3.45;1.90;;;18.00;99.90;;;;;;4955085;29;20417;-70
2021/08/28 09:57:11;;;;;;;3.38;1.83;;;18.20;99.90;;;;;;4954690;29;20031;-70
2021/08/28 09:59:37;;;;;;;4.10;1.67;;;17.80;99.90;;;;;;4954905;29;20094;-70
2021/08/28 10:02:10;;;;;;;3.35;1.65;;;18.10;99.90;;;;;;4954925;29;20051;-70
2021/08/28 10:04:56;;;;;;;4.03;2.00;;;18.30;99.90;;;;;;4955054;29;20035;-70
2021/08/28 10:07:32;;;;;;;2.38;1.70;;;18.40;99.90;;;;;;4975420;28;20037;-70
2021/08/28 10:10:05;;;;;;;3.53;1.45;;;18.20;99.90;;;;;;5015538;28;20109;-70
2021/08/28 10:12:34;;;;;;;2.70;1.60;;;18.70;99.90;;;;;;5015321;28;20022;-70
2021/08/28 10:15:05;;;;;;;3.13;1.48;;;18.80;99.90;;;;;;5015175;28;20042;-70
2021/08/28 10:17:32;;;;;;;;;;;19.20;99.90;;;;;;5014257;28;20518;-70
2021/08/28 10:19:58;;;;;;;3.78;1.60;;;19.40;99.90;;;;;;5013943;28;20289;-70
2021/08/28 10:22:29;;;;;;;14.63;8.90;;;19.10;99.90;;;;;;5015319;28;20041;-70
2021/08/28 10:24:58;;;;;;;2.53;1.63;;;18.90;99.90;;;;;;4982170;28;20058;-70
2021/08/28 10:27:26;;;;;;;4.13;2.00;;;19.00;99.90;;;;;;5013927;28;20030;-70
2021/08/28 10:29:53;;;;;;;5.35;1.23;;;19.70;99.90;;;;;;5013899;28;20037;-70
2021/08/28 10:32:21;;;;;;;3.08;1.52;;;19.60;99.90;;;;;;5015105;28;20030;-70
2021/08/28 10:34:49;;;;;;;2.20;1.40;;;19.10;99.90;;;;;;5013706;28;20044;-70
2021/08/28 10:37:15;;;;;;;3.22;1.95;;;19.40;99.90;;;;;;4996837;28;20477;-71
2021/08/28 10:39:42;;;;;;;3.28;1.73;;;19.70;99.90;;;;;;5013437;28;20036;-67
2021/08/28 10:42:11;;;;;;;2.42;1.30;;;19.30;99.90;;;;;;5013703;28;20037;-70
2021/08/28 10:44:38;;;;;;;1.77;1.10;;;19.90;99.90;;;;;;5013419;28;20041;-70
2021/08/28 10:47:23;;;;;;;2.85;1.00;;;20.40;99.90;;;;;;4997291;28;20030;-73
2021/08/28 10:49:52;;;;;;;5.65;1.17;;;20.60;99.90;;;;;;5014861;28;20084;-73
2021/08/28 10:52:23;;;;;;;1.38;0.82;;;20.30;99.90;;;;;;5014672;28;20498;-73
2021/08/28 10:55:01;;;;;;;1.55;0.90;;;19.30;99.90;;;;;;5014689;28;20034;-73
2021/08/28 10:57:30;;;;;;;2.33;1.27;;;20.20;99.90;;;;;;5014676;28;20034;-69
2021/08/28 11:00:17;;;;;;;1.45;0.98;;;20.10;99.90;;;;;;5006823;28;20112;-68
2021/08/28 11:02:57;;;;;;;1.77;0.80;;;20.40;99.90;;;;;;5018192;28;20040;-69
2021/08/28 11:05:27;;;;;;;1.80;0.90;;;20.00;99.90;;;;;;4994810;28;20217;-69
2021/08/28 11:08:15;;;;;;;;;;;19.10;99.90;;;;;;5002785;28;20034;-69
2021/08/28 11:10:41;;;;;;;2.00;1.10;;;19.10;99.90;;;;;;5012192;28;19928;-69
2021/08/28 11:13:07;;;;;;;2.42;1.05;;;19.50;99.90;;;;;;5011384;28;20434;-69
2021/08/28 11:15:33;;;;;;;10.35;5.47;;;20.00;99.90;;;;;;5028324;28;20033;-68
2021/08/28 11:18:42;;;;;;;2.17;1.25;;;20.20;99.90;;;;;;5014058;28;20053;-68
2021/08/28 11:21:10;;;;;;;1.92;0.68;;;20.30;99.90;;;;;;5013947;28;20494;-69
2021/08/28 11:23:40;;;;;;;2.13;0.60;;;19.70;99.90;;;;;;5028959;28;20506;-69
2021/08/28 11:26:06;;;;;;;0.90;0.70;;;19.50;99.90;;;;;;5013845;28;20363;-69
2021/08/28 11:28:42;;;;;;;3.55;0.98;;;19.90;99.90;;;;;;5013753;28;20057;-69
2021/08/28 11:31:09;;;;;;;1.70;0.90;;;20.10;99.90;;;;;;5029261;28;20029;-70
2021/08/28 11:33:37;;;;;;;3.22;1.05;;;20.30;99.90;;;;;;5013708;28;20080;-69
2021/08/28 11:36:18;;;;;;;1.58;0.70;;;20.00;99.90;;;;;;5013659;28;20034;-70
2021/08/28 11:38:51;;;;;;;2.67;1.30;;;19.90;99.90;;;;;;5027550;28;20505;-70
2021/08/28 11:41:25;;;;;;;1.55;1.00;;;20.30;99.90;;;;;;5010188;28;20091;-69
2021/08/28 11:43:55;;;;;;;4.45;1.20;;;20.00;99.90;;;;;;5012478;28;20034;-69
2021/08/28 11:46:29;;;;;;;4.07;1.60;;;19.70;99.90;;;;;;5013447;28;20028;-70
2021/08/28 11:48:58;;;;;;;1.73;1.25;;;19.80;99.90;;;;;;5012813;28;20069;-69
2021/08/28 11:51:26;;;;;;;2.15;1.27;;;19.90;99.90;;;;;;5012058;28;20066;-70
2021/08/28 11:53:57;;;;;;;4.00;1.10;;;19.80;99.90;;;;;;5013196;28;20026;-69
2021/08/28 11:56:29;;;;;;;2.33;0.90;;;19.70;99.90;;;;;;5011925;28;20088;-69
2021/08/28 11:59:03;;;;;;;2.13;0.95;;;19.60;99.90;;;;;;5012160;28;20030;-69
2021/08/28 12:01:41;;;;;;;1.67;1.08;;;19.90;99.90;;;;;;5013157;28;20406;-69
2021/08/28 12:04:18;;;;;;;1.73;0.82;;;20.20;99.90;;;;;;5013086;28;20034;-69
2021/08/28 12:06:53;;;;;;;1.92;1.00;;;20.30;99.90;;;;;;5011900;28;20033;-69
2021/08/28 12:09:22;;;;;;;4.13;1.17;;;20.00;99.90;;;;;;4996027;28;20034;-69
2021/08/28 12:11:50;;;;;;;1.95;1.13;;;20.10;99.90;;;;;;5013217;28;20041;-69
2021/08/28 12:14:18;;;;;;;7.15;1.77;;;20.20;99.90;;;;;;5013034;28;20026;-69
2021/08/28 12:16:46;;;;;;;3.25;1.20;;;20.00;99.90;;;;;;5011973;28;20025;-69
2021/08/28 12:19:29;;;;;;;2.10;1.15;;;20.00;99.90;;;;;;5012160;28;20042;-69
2021/08/28 12:22:06;;;;;;;2.40;1.20;;;19.80;99.90;;;;;;5011984;28;20046;-69
2021/08/28 12:24:38;;;;;;;1.63;1.05;;;19.70;99.90;;;;;;5011482;28;20107;-69
2021/08/28 12:27:08;;;;;;;11.30;5.85;;;19.70;99.90;;;;;;5011481;28;20037;-69
2021/08/28 12:29:43;;;;;;;7.45;4.15;;;19.80;99.90;;;;;;5011582;28;20022;-69
2021/08/28 12:32:22;;;;;;;3.10;1.40;;;19.60;99.90;;;;;;5012571;28;20036;-69
2021/08/28 12:34:55;;;;;;;2.25;1.30;;;19.90;99.90;;;;;;5010978;28;20402;-68
2021/08/28 12:37:26;;;;;;;2.28;1.35;;;19.90;99.90;;;;;;5012440;28;20026;-69
2021/08/28 12:39:59;;;;;;;2.72;1.48;;;20.10;99.90;;;;;;5012708;28;20038;-69
2021/08/28 12:42:31;;;;;;;1.92;1.40;;;20.00;99.90;;;;;;5011471;28;20048;-69
2021/08/28 12:45:00;;;;;;;1.48;1.10;;;19.70;99.90;;;;;;5012508;28;20045;-69
2021/08/28 12:47:32;;;;;;;2.25;1.20;;;19.40;99.90;;;;;;5011066;28;20042;-69
2021/08/28 12:49:58;;;;;;;5.15;1.13;;;19.50;99.90;;;;;;5011301;28;20046;-69